createdAt,value
2018-07-30T00:00:55.375Z,23.61
2018-07-30T00:01:55.294Z,23.58
2018-07-30T00:02:55.285Z,23.57
2018-07-30T00:03:55.277Z,23.63
2018-07-30T00:04:55.279Z,23.55
2018-07-30T00:05:55.321Z,23.57
2018-07-30T00:06:55.250Z,23.48
2018-07-30T00:07:55.238Z,23.54
2018-07-30T00:08:55.225Z,23.48
2018-07-30T00:09:55.214Z,23.46
2018-07-30T00:10:55.640Z,23.43
2018-07-30T00:11:55.194Z,23.42
2018-07-30T00:12:55.183Z,23.47
2018-07-30T00:13:55.170Z,23.35
2018-07-30T00:14:55.164Z,23.43
2018-07-30T00:15:55.220Z,23.31
2018-07-30T00:16:55.142Z,23.46
2018-07-30T00:17:55.134Z,23.27
2018-07-30T00:18:55.122Z,23.47
2018-07-30T00:19:55.115Z,23.35
2018-07-30T00:20:55.164Z,23.28
2018-07-30T00:21:55.092Z,23.31
2018-07-30T00:22:55.078Z,23.31
2018-07-30T00:23:55.072Z,23.35
2018-07-30T00:24:55.059Z,23.22
2018-07-30T00:25:55.114Z,23.20
2018-07-30T00:26:55.039Z,23.22
2018-07-30T00:27:55.026Z,23.20
2018-07-30T00:28:55.023Z,23.23
2018-07-30T00:29:55.009Z,23.25
2018-07-30T00:30:55.062Z,23.19
2018-07-30T00:31:55.551Z,23.22
2018-07-30T00:32:54.976Z,23.27
2018-07-30T00:33:54.965Z,23.22
2018-07-30T00:34:54.956Z,23.23
2018-07-30T00:35:54.948Z,23.20
2018-07-30T00:36:55.003Z,23.28
2018-07-30T00:37:54.929Z,23.20
2018-07-30T00:38:54.911Z,23.22
2018-07-30T00:39:54.901Z,23.16
2018-07-30T00:40:54.892Z,23.12
2018-07-30T00:41:54.961Z,23.15
2018-07-30T00:42:54.873Z,23.16
2018-07-30T00:43:54.862Z,23.16
2018-07-30T00:44:54.851Z,23.10
2018-07-30T00:45:54.842Z,23.05
2018-07-30T00:46:54.897Z,23.09
2018-07-30T00:47:54.828Z,23.09
2018-07-30T00:48:54.809Z,23.00
2018-07-30T00:49:54.801Z,23.00
2018-07-30T00:50:54.790Z,22.94
2018-07-30T00:51:54.845Z,22.97
2018-07-30T00:52:55.549Z,23.00
2018-07-30T00:53:54.756Z,22.92
2018-07-30T00:54:54.765Z,22.94
2018-07-30T00:55:54.740Z,22.88
2018-07-30T00:56:55.132Z,22.90
2018-07-30T00:57:54.724Z,22.83
2018-07-30T00:58:54.707Z,22.82
2018-07-30T00:59:54.695Z,22.79
2018-07-30T01:00:54.685Z,22.82
2018-07-30T01:01:54.743Z,22.82
2018-07-30T01:02:54.668Z,22.68
2018-07-30T01:03:54.654Z,22.83
2018-07-30T01:04:54.643Z,22.72
2018-07-30T01:05:54.632Z,22.76
2018-07-30T01:06:54.692Z,22.72
2018-07-30T01:07:54.616Z,22.70
2018-07-30T01:08:54.601Z,22.73
2018-07-30T01:09:54.593Z,22.73
2018-07-30T01:10:54.582Z,22.67
2018-07-30T01:11:54.638Z,22.70
2018-07-30T01:12:54.563Z,22.58
2018-07-30T01:13:54.551Z,22.73
2018-07-30T01:14:54.540Z,22.65
2018-07-30T01:16:02.649Z,22.60
2018-07-30T01:16:54.584Z,22.68
2018-07-30T01:17:54.520Z,22.58
2018-07-30T01:18:54.496Z,22.61
2018-07-30T01:19:54.491Z,22.57
2018-07-30T01:20:54.477Z,22.62
2018-07-30T01:21:54.529Z,22.72
2018-07-30T01:22:54.457Z,22.70
2018-07-30T01:23:54.447Z,22.58
2018-07-30T01:24:54.438Z,22.68
2018-07-30T01:25:54.421Z,22.62
2018-07-30T01:26:54.479Z,22.61
2018-07-30T01:27:54.405Z,22.62
2018-07-30T01:28:54.394Z,22.68
2018-07-30T01:29:54.388Z,22.62
2018-07-30T01:30:54.374Z,22.62
2018-07-30T01:31:54.427Z,22.67
2018-07-30T01:32:54.352Z,22.64
2018-07-30T01:33:54.344Z,22.64
2018-07-30T01:34:54.333Z,22.60
2018-07-30T01:35:54.325Z,22.61
2018-07-30T01:36:54.658Z,22.67
2018-07-30T01:37:54.303Z,22.61
2018-07-30T01:38:54.288Z,22.61
2018-07-30T01:39:54.277Z,22.61
2018-07-30T01:40:54.266Z,22.62
2018-07-30T01:41:54.324Z,22.62
2018-07-30T01:42:54.247Z,22.54
2018-07-30T01:43:54.236Z,22.54
2018-07-30T01:44:54.225Z,22.49
2018-07-30T01:45:54.216Z,22.54
2018-07-30T01:46:54.264Z,22.52
2018-07-30T01:47:54.192Z,22.61
2018-07-30T01:48:54.186Z,22.51
2018-07-30T01:49:54.175Z,22.46
2018-07-30T01:50:54.161Z,22.37
2018-07-30T01:51:54.217Z,22.35
2018-07-30T01:52:54.144Z,22.42
2018-07-30T01:53:54.131Z,22.37
2018-07-30T01:54:54.121Z,22.37
2018-07-30T01:55:54.110Z,22.39
2018-07-30T01:56:54.164Z,22.37
2018-07-30T01:57:56.080Z,22.36
2018-07-30T01:58:54.082Z,22.40
2018-07-30T01:59:54.067Z,22.36
2018-07-30T02:00:54.059Z,22.35
2018-07-30T02:01:54.114Z,22.36
2018-07-30T02:02:54.041Z,22.39
2018-07-30T02:03:54.026Z,22.31
2018-07-30T02:04:54.031Z,22.33
2018-07-30T02:05:54.009Z,22.33
2018-07-30T02:06:54.056Z,22.31
2018-07-30T02:07:53.986Z,22.30
2018-07-30T02:08:53.976Z,22.20
2018-07-30T02:09:53.962Z,22.27
2018-07-30T02:10:53.956Z,22.15
2018-07-30T02:11:54.011Z,22.12
2018-07-30T02:12:53.929Z,22.12
2018-07-30T02:13:53.918Z,22.18
2018-07-30T02:14:53.912Z,22.20
2018-07-30T02:15:53.898Z,22.17
2018-07-30T02:16:53.961Z,22.18
2018-07-30T02:17:53.876Z,22.10
2018-07-30T02:18:53.865Z,22.07
2018-07-30T02:19:54.578Z,22.20
2018-07-30T02:20:53.848Z,22.07
2018-07-30T02:21:53.838Z,22.17
2018-07-30T02:22:53.892Z,22.06
2018-07-30T02:23:53.813Z,22.21
2018-07-30T02:24:53.807Z,22.15
2018-07-30T02:25:53.793Z,22.15
2018-07-30T02:26:53.783Z,22.09
2018-07-30T02:27:53.838Z,22.06
2018-07-30T02:28:53.766Z,22.09
2018-07-30T02:29:53.755Z,22.15
2018-07-30T02:30:53.745Z,22.21
2018-07-30T02:31:53.730Z,22.20
2018-07-30T02:32:53.793Z,22.09
2018-07-30T02:33:53.709Z,22.20
2018-07-30T02:34:53.700Z,22.15
2018-07-30T02:35:53.686Z,22.02
2018-07-30T02:36:53.681Z,22.07
2018-07-30T02:37:53.738Z,22.06
2018-07-30T02:38:53.655Z,22.06
2018-07-30T02:39:53.647Z,22.03
2018-07-30T02:40:54.577Z,22.06
2018-07-30T02:41:53.625Z,22.09
2018-07-30T02:42:53.688Z,22.05
2018-07-30T02:43:53.603Z,22.07
2018-07-30T02:44:53.592Z,22.06
2018-07-30T02:45:53.583Z,22.05
2018-07-30T02:46:53.573Z,22.14
2018-07-30T02:47:53.630Z,22.02
2018-07-30T02:48:53.550Z,22.00
2018-07-30T02:49:53.541Z,22.05
2018-07-30T02:50:53.530Z,22.05
2018-07-30T02:51:53.521Z,22.09
2018-07-30T02:52:53.575Z,21.98
2018-07-30T02:53:53.502Z,22.06
2018-07-30T02:54:53.489Z,22.07
2018-07-30T02:55:53.475Z,22.07
2018-07-30T02:56:53.467Z,22.00
2018-07-30T02:57:53.517Z,21.99
2018-07-30T02:58:53.446Z,22.07
2018-07-30T02:59:53.437Z,22.07
2018-07-30T03:00:53.425Z,22.09
2018-07-30T03:01:54.077Z,22.02
2018-07-30T03:02:53.469Z,22.00
2018-07-30T03:03:53.392Z,22.02
2018-07-30T03:04:53.394Z,22.00
2018-07-30T03:05:53.373Z,21.94
2018-07-30T03:06:53.362Z,21.91
2018-07-30T03:07:53.417Z,21.91
2018-07-30T03:08:53.344Z,21.90
2018-07-30T03:09:53.329Z,21.90
2018-07-30T03:10:53.318Z,21.74
2018-07-30T03:11:53.307Z,21.83
2018-07-30T03:12:53.373Z,21.82
2018-07-30T03:13:53.290Z,21.72
2018-07-30T03:14:53.276Z,21.68
2018-07-30T03:15:53.265Z,21.80
2018-07-30T03:16:53.254Z,21.74
2018-07-30T03:17:53.316Z,21.72
2018-07-30T03:18:53.237Z,21.71
2018-07-30T03:19:53.224Z,21.74
2018-07-30T03:20:53.215Z,21.69
2018-07-30T03:21:53.205Z,21.65
2018-07-30T03:22:53.655Z,21.61
2018-07-30T03:23:53.185Z,21.59
2018-07-30T03:24:53.174Z,21.56
2018-07-30T03:25:53.163Z,21.47
2018-07-30T03:26:53.152Z,21.42
2018-07-30T03:27:53.207Z,21.42
2018-07-30T03:28:53.231Z,21.49
2018-07-30T03:29:53.121Z,21.44
2018-07-30T03:30:53.108Z,21.49
2018-07-30T03:31:53.096Z,21.40
2018-07-30T03:32:53.155Z,21.49
2018-07-30T03:33:53.075Z,21.49
2018-07-30T03:34:53.067Z,21.44
2018-07-30T03:35:53.055Z,21.49
2018-07-30T03:36:53.044Z,21.43
2018-07-30T03:37:53.102Z,21.49
2018-07-30T03:38:53.024Z,21.40
2018-07-30T03:39:53.013Z,21.44
2018-07-30T03:40:53.003Z,21.42
2018-07-30T03:41:52.995Z,21.37
2018-07-30T03:43:01.692Z,21.34
2018-07-30T03:44:00.496Z,21.37
2018-07-30T03:45:22.049Z,21.31
2018-07-30T03:45:52.950Z,21.29
2018-07-30T03:46:52.939Z,21.27
2018-07-30T03:47:53.026Z,21.28
2018-07-30T03:48:52.919Z,21.29
2018-07-30T03:49:52.919Z,21.29
2018-07-30T03:50:52.895Z,21.29
2018-07-30T03:51:52.883Z,21.28
2018-07-30T03:52:52.942Z,21.25
2018-07-30T03:53:52.864Z,21.27
2018-07-30T03:54:52.853Z,21.24
2018-07-30T03:55:52.845Z,21.22
2018-07-30T03:56:52.830Z,21.22
2018-07-30T03:57:52.823Z,21.12
2018-07-30T03:58:53.265Z,21.13
2018-07-30T03:59:52.802Z,21.09
2018-07-30T04:00:52.792Z,21.16
2018-07-30T04:01:52.784Z,21.17
2018-07-30T04:02:52.769Z,21.13
2018-07-30T04:03:52.825Z,21.12
2018-07-30T04:04:52.750Z,21.03
2018-07-30T04:05:52.741Z,21.01
2018-07-30T04:06:52.726Z,21.07
2018-07-30T04:07:52.724Z,21.04
2018-07-30T04:08:52.770Z,21.07
2018-07-30T04:09:52.695Z,21.09
2018-07-30T04:10:52.687Z,21.09
2018-07-30T04:11:52.681Z,21.03
2018-07-30T04:12:52.664Z,21.16
2018-07-30T04:13:52.718Z,21.09
2018-07-30T04:14:52.640Z,21.10
2018-07-30T04:15:52.632Z,21.09
2018-07-30T04:16:52.622Z,21.03
2018-07-30T04:17:52.609Z,21.07
2018-07-30T04:18:52.667Z,21.09
2018-07-30T04:19:52.590Z,21.04
2018-07-30T04:20:52.576Z,20.98
2018-07-30T04:21:52.565Z,20.99
2018-07-30T04:22:52.554Z,21.01
2018-07-30T04:23:52.612Z,21.09
2018-07-30T04:24:52.541Z,20.94
2018-07-30T04:25:52.526Z,21.10
2018-07-30T04:26:52.516Z,21.13
2018-07-30T04:27:52.503Z,21.10
2018-07-30T04:28:52.560Z,21.13
2018-07-30T04:29:52.482Z,21.13
2018-07-30T04:30:52.493Z,21.22
2018-07-30T04:31:52.460Z,21.22
2018-07-30T04:32:52.448Z,21.17
2018-07-30T04:33:52.506Z,21.22
2018-07-30T04:34:52.429Z,21.27
2018-07-30T04:35:52.419Z,21.19
2018-07-30T04:36:52.408Z,21.27
2018-07-30T04:37:52.411Z,21.25
2018-07-30T04:38:52.451Z,21.32
2018-07-30T04:39:52.377Z,21.21
2018-07-30T04:40:52.362Z,21.25
2018-07-30T04:41:52.355Z,21.28
2018-07-30T04:42:52.343Z,21.25
2018-07-30T04:43:52.415Z,21.29
2018-07-30T04:44:52.323Z,21.38
2018-07-30T04:45:52.313Z,21.27
2018-07-30T04:46:52.299Z,21.28
2018-07-30T04:47:52.296Z,21.32
2018-07-30T04:48:52.348Z,21.32
2018-07-30T04:49:52.271Z,21.32
2018-07-30T04:50:52.260Z,21.37
2018-07-30T04:51:52.249Z,21.34
2018-07-30T04:52:52.240Z,21.25
2018-07-30T04:53:52.288Z,21.38
2018-07-30T04:54:52.216Z,21.37
2018-07-30T04:55:52.205Z,21.37
2018-07-30T04:56:52.210Z,21.40
2018-07-30T04:57:52.196Z,21.32
2018-07-30T04:58:52.240Z,21.40
2018-07-30T04:59:52.164Z,21.38
2018-07-30T05:00:52.158Z,21.37
2018-07-30T05:01:52.141Z,21.42
2018-07-30T05:02:52.133Z,21.43
2018-07-30T05:03:52.220Z,21.49
2018-07-30T05:04:52.108Z,21.52
2018-07-30T05:05:52.108Z,21.44
2018-07-30T05:06:52.094Z,21.61
2018-07-30T05:07:52.078Z,21.65
2018-07-30T05:08:52.258Z,21.67
2018-07-30T05:09:52.056Z,21.56
2018-07-30T05:10:52.045Z,21.43
2018-07-30T05:11:52.034Z,21.59
2018-07-30T05:12:52.026Z,21.44
2018-07-30T05:13:52.095Z,21.61
2018-07-30T05:14:52.014Z,21.59
2018-07-30T05:15:51.998Z,21.68
2018-07-30T05:16:51.984Z,21.65
2018-07-30T05:17:51.973Z,21.72
2018-07-30T05:18:52.031Z,21.67
2018-07-30T05:19:51.951Z,21.83
2018-07-30T05:20:51.948Z,21.88
2018-07-30T05:21:51.937Z,21.90
2018-07-30T05:22:51.920Z,22.03
2018-07-30T05:23:51.975Z,22.00
2018-07-30T05:24:51.898Z,22.09
2018-07-30T05:25:51.906Z,22.06
2018-07-30T05:26:51.934Z,22.14
2018-07-30T05:27:51.873Z,22.28
2018-07-30T05:28:51.925Z,22.31
2018-07-30T05:29:52.675Z,22.37
2018-07-30T05:30:51.841Z,22.39
2018-07-30T05:31:51.826Z,22.42
2018-07-30T05:32:51.818Z,22.47
2018-07-30T05:33:51.889Z,22.55
2018-07-30T05:34:51.794Z,22.61
2018-07-30T05:35:51.782Z,22.55
2018-07-30T05:36:51.774Z,22.62
2018-07-30T05:37:51.762Z,22.73
2018-07-30T05:38:51.822Z,22.77
2018-07-30T05:39:51.742Z,22.82
2018-07-30T05:40:51.737Z,22.90
2018-07-30T05:41:52.675Z,22.83
2018-07-30T05:42:51.786Z,22.92
2018-07-30T05:43:51.701Z,22.92
2018-07-30T05:44:51.751Z,22.94
2018-07-30T05:45:51.685Z,23.00
2018-07-30T05:46:51.674Z,22.97
2018-07-30T05:47:51.663Z,23.00
2018-07-30T05:48:51.654Z,23.16
2018-07-30T05:49:51.704Z,23.20
2018-07-30T05:50:52.177Z,23.13
2018-07-30T05:51:51.618Z,23.17
2018-07-30T05:52:51.618Z,23.27
2018-07-30T05:53:51.601Z,23.27
2018-07-30T05:54:51.657Z,23.25
2018-07-30T05:55:51.574Z,23.31
2018-07-30T05:56:51.570Z,23.32
2018-07-30T05:57:51.555Z,23.31
2018-07-30T05:58:51.559Z,23.28
2018-07-30T05:59:51.787Z,23.46
2018-07-30T06:00:51.524Z,23.50
2018-07-30T06:01:51.514Z,23.46
2018-07-30T06:02:59.078Z,23.66
2018-07-30T06:03:51.495Z,23.79
2018-07-30T06:04:51.543Z,23.95
2018-07-30T06:05:51.471Z,23.95
2018-07-30T06:06:51.461Z,24.03
2018-07-30T06:07:51.447Z,24.06
2018-07-30T06:08:51.441Z,24.15
2018-07-30T06:09:51.496Z,24.10
2018-07-30T06:10:51.417Z,24.20
2018-07-30T06:11:51.408Z,24.31
2018-07-30T06:12:51.394Z,24.31
2018-07-30T06:13:51.383Z,24.32
2018-07-30T06:14:51.446Z,24.39
2018-07-30T06:15:51.363Z,24.40
2018-07-30T06:16:51.355Z,24.40
2018-07-30T06:17:51.344Z,24.49
2018-07-30T06:18:51.336Z,24.40
2018-07-30T06:19:51.388Z,24.46
2018-07-30T06:20:51.365Z,24.49
2018-07-30T06:21:51.303Z,24.58
2018-07-30T06:22:51.298Z,24.58
2018-07-30T06:23:52.213Z,24.67
2018-07-30T06:24:51.338Z,24.68
2018-07-30T06:25:51.263Z,24.71
2018-07-30T06:26:51.256Z,24.83
2018-07-30T06:27:51.242Z,24.83
2018-07-30T06:28:51.228Z,24.88
2018-07-30T06:29:51.288Z,24.93
2018-07-30T06:30:51.229Z,25.06
2018-07-30T06:31:51.259Z,25.13
2018-07-30T06:32:51.189Z,25.25
2018-07-30T06:33:51.189Z,25.45
2018-07-30T06:34:51.230Z,25.46
2018-07-30T06:35:51.154Z,25.45
2018-07-30T06:36:51.147Z,25.55
2018-07-30T06:37:51.146Z,25.69
2018-07-30T06:38:51.125Z,25.83
2018-07-30T06:39:51.180Z,26.10
2018-07-30T06:40:51.106Z,26.32
2018-07-30T06:41:51.092Z,26.36
2018-07-30T06:42:51.091Z,26.58
2018-07-30T06:43:51.074Z,26.66
2018-07-30T06:44:51.289Z,26.65
2018-07-30T06:45:51.054Z,26.84
2018-07-30T06:46:51.039Z,26.81
2018-07-30T06:47:51.087Z,26.84
2018-07-30T06:48:51.027Z,26.76
2018-07-30T06:49:51.081Z,26.70
2018-07-30T06:50:51.002Z,26.70
2018-07-30T06:51:51.003Z,26.77
2018-07-30T06:52:50.981Z,26.72
2018-07-30T06:53:50.970Z,26.75
2018-07-30T06:54:51.027Z,26.75
2018-07-30T06:55:50.947Z,26.75
2018-07-30T06:56:50.944Z,26.89
2018-07-30T06:57:50.936Z,26.88
2018-07-30T06:58:50.919Z,26.84
2018-07-30T06:59:50.977Z,26.89
2018-07-30T07:00:50.901Z,26.94
2018-07-30T07:01:50.886Z,27.02
2018-07-30T07:02:50.881Z,26.89
2018-07-30T07:03:50.894Z,26.99
2018-07-30T07:04:50.924Z,26.99
2018-07-30T07:05:51.712Z,27.02
2018-07-30T07:06:50.843Z,27.00
2018-07-30T07:07:50.828Z,26.99
2018-07-30T07:08:50.815Z,26.94
2018-07-30T07:09:50.879Z,26.97
2018-07-30T07:10:50.839Z,26.97
2018-07-30T07:11:50.803Z,26.94
2018-07-30T07:12:50.778Z,26.89
2018-07-30T07:13:50.767Z,26.94
2018-07-30T07:14:50.820Z,26.89
2018-07-30T07:15:50.758Z,26.95
2018-07-30T07:16:50.786Z,27.00
2018-07-30T07:17:50.723Z,27.12
2018-07-30T07:18:50.715Z,27.18
2018-07-30T07:19:50.781Z,27.19
2018-07-30T07:20:50.693Z,27.24
2018-07-30T07:21:50.715Z,27.28
2018-07-30T07:22:50.674Z,27.36
2018-07-30T07:23:50.662Z,27.28
2018-07-30T07:24:50.667Z,27.29
2018-07-30T07:25:50.713Z,27.28
2018-07-30T07:26:51.222Z,27.28
2018-07-30T07:27:50.637Z,27.37
2018-07-30T07:28:58.716Z,27.37
2018-07-30T07:29:58.794Z,27.41
2018-07-30T07:30:58.726Z,27.51
2018-07-30T07:31:50.588Z,27.72
2018-07-30T07:32:58.640Z,28.07
2018-07-30T07:33:50.564Z,28.29
2018-07-30T07:34:50.584Z,28.58
2018-07-30T07:35:50.599Z,28.96
2018-07-30T07:36:58.662Z,29.24
2018-07-30T07:38:00.103Z,29.78
2018-07-30T07:39:01.785Z,30.01
2018-07-30T07:39:59.961Z,30.05
2018-07-30T07:40:50.557Z,30.01
2018-07-30T07:42:02.073Z,29.74
2018-07-30T07:42:50.484Z,29.82
2018-07-30T07:43:50.465Z,29.79
2018-07-30T07:44:50.513Z,29.61
2018-07-30T07:45:50.519Z,29.53
2018-07-30T07:46:50.429Z,29.51
2018-07-30T07:47:50.450Z,29.43
2018-07-30T07:48:50.410Z,29.45
2018-07-30T07:49:50.398Z,29.60
2018-07-30T07:50:50.605Z,29.61
2018-07-30T07:51:50.381Z,29.92
2018-07-30T07:52:50.371Z,30.11
2018-07-30T07:53:50.359Z,30.17
2018-07-30T07:54:50.348Z,30.11
2018-07-30T07:55:50.409Z,30.19
2018-07-30T07:56:50.329Z,30.29
2018-07-30T07:57:50.323Z,30.17
2018-07-30T07:58:50.309Z,30.15
2018-07-30T07:59:50.301Z,30.17
2018-07-30T08:00:50.576Z,30.22
2018-07-30T08:01:50.281Z,30.22
2018-07-30T08:02:50.274Z,30.11
2018-07-30T08:03:50.990Z,30.02
2018-07-30T08:04:50.250Z,30.10
2018-07-30T08:05:50.306Z,30.11
2018-07-30T08:06:50.232Z,30.29
2018-07-30T08:07:50.220Z,30.45
2018-07-30T08:08:50.215Z,30.57
2018-07-30T08:09:50.326Z,30.64
2018-07-30T08:10:50.316Z,30.69
2018-07-30T08:11:50.191Z,30.86
2018-07-30T08:12:50.173Z,31.17
2018-07-30T08:13:50.162Z,31.14
2018-07-30T08:14:50.154Z,31.16
2018-07-30T08:15:50.211Z,31.34
2018-07-30T08:16:50.134Z,31.32
2018-07-30T08:17:50.126Z,31.12
2018-07-30T08:18:50.115Z,30.89
2018-07-30T08:19:50.103Z,31.06
2018-07-30T08:20:50.161Z,31.04
2018-07-30T08:21:50.086Z,31.07
2018-07-30T08:22:50.073Z,31.12
2018-07-30T08:23:50.071Z,31.12
2018-07-30T08:24:50.988Z,31.16
2018-07-30T08:25:50.119Z,31.36
2018-07-30T08:26:50.036Z,31.47
2018-07-30T08:27:50.026Z,31.48
2018-07-30T08:28:50.015Z,31.65
2018-07-30T08:29:50.009Z,31.73
2018-07-30T08:30:50.067Z,31.81
2018-07-30T08:31:49.989Z,31.86
2018-07-30T08:32:49.978Z,31.91
2018-07-30T08:33:49.969Z,31.93
2018-07-30T08:34:49.956Z,31.86
2018-07-30T08:35:50.014Z,31.91
2018-07-30T08:36:49.941Z,31.92
2018-07-30T08:37:49.939Z,32.04
2018-07-30T08:38:49.931Z,31.93
2018-07-30T08:39:49.914Z,31.89
2018-07-30T08:40:49.964Z,31.95
2018-07-30T08:41:49.889Z,31.95
2018-07-30T08:42:49.878Z,32.01
2018-07-30T08:43:49.870Z,32.01
2018-07-30T08:44:49.861Z,32.21
2018-07-30T08:45:50.068Z,32.28
2018-07-30T08:46:49.847Z,32.43
2018-07-30T08:47:49.833Z,32.66
2018-07-30T08:48:49.892Z,32.78
2018-07-30T08:49:49.811Z,32.87
2018-07-30T08:50:49.870Z,33.22
2018-07-30T08:51:49.797Z,33.26
2018-07-30T08:52:49.789Z,33.29
2018-07-30T08:53:49.773Z,33.37
2018-07-30T08:54:49.761Z,33.57
2018-07-30T08:55:49.822Z,33.69
2018-07-30T08:56:49.745Z,33.60
2018-07-30T08:57:49.736Z,33.60
2018-07-30T08:58:49.744Z,33.49
2018-07-30T08:59:49.719Z,33.45
2018-07-30T09:00:49.774Z,33.50
2018-07-30T09:01:49.700Z,33.44
2018-07-30T09:02:49.695Z,33.56
2018-07-30T09:03:49.680Z,33.63
2018-07-30T09:04:49.672Z,33.82
2018-07-30T09:05:49.734Z,34.16
2018-07-30T09:06:50.490Z,34.43
2018-07-30T09:07:49.644Z,34.75
2018-07-30T09:08:49.635Z,35.07
2018-07-30T09:09:49.622Z,34.65
2018-07-30T09:10:49.616Z,34.78
2018-07-30T09:11:49.672Z,35.03
2018-07-30T09:12:49.739Z,35.09
2018-07-30T09:13:50.492Z,35.23
2018-07-30T09:14:49.588Z,35.58
2018-07-30T09:15:49.572Z,36.07
2018-07-30T09:16:49.627Z,36.16
2018-07-30T09:17:49.550Z,36.09
2018-07-30T09:18:49.547Z,35.87
2018-07-30T09:19:49.535Z,35.94
2018-07-30T09:20:49.527Z,36.01
2018-07-30T09:21:49.585Z,36.07
2018-07-30T09:22:49.507Z,36.09
2018-07-30T09:23:49.504Z,36.00
2018-07-30T09:24:49.490Z,35.89
2018-07-30T09:25:49.482Z,36.08
2018-07-30T09:26:50.052Z,36.25
2018-07-30T09:27:50.006Z,36.32
2018-07-30T09:28:49.454Z,36.25
2018-07-30T09:29:49.448Z,36.29
2018-07-30T09:30:49.437Z,36.34
2018-07-30T09:31:49.501Z,36.20
2018-07-30T09:32:49.479Z,36.13
2018-07-30T09:33:49.465Z,35.93
2018-07-30T09:34:49.412Z,35.62
2018-07-30T09:35:49.396Z,35.43
2018-07-30T09:36:49.448Z,35.41
2018-07-30T09:37:49.395Z,35.23
2018-07-30T09:38:49.471Z,35.29
2018-07-30T09:39:49.365Z,35.21
2018-07-30T09:40:49.350Z,35.71
2018-07-30T09:41:49.411Z,35.85
2018-07-30T09:42:49.334Z,36.44
2018-07-30T09:43:49.327Z,37.29
2018-07-30T09:44:49.331Z,38.22
2018-07-30T09:45:49.306Z,38.46
2018-07-30T09:46:49.377Z,38.93
2018-07-30T09:47:49.292Z,38.79
2018-07-30T09:48:49.994Z,38.38
2018-07-30T09:49:49.275Z,38.18
2018-07-30T09:50:49.272Z,38.52
2018-07-30T09:51:49.330Z,38.74
2018-07-30T09:52:49.252Z,39.17
2018-07-30T09:53:49.242Z,39.40
2018-07-30T09:54:49.236Z,39.63
2018-07-30T09:55:49.229Z,39.77
2018-07-30T09:56:49.292Z,39.94
2018-07-30T09:57:49.211Z,40.12
2018-07-30T09:58:49.202Z,40.25
2018-07-30T09:59:49.197Z,40.58
2018-07-30T10:00:49.188Z,40.83
2018-07-30T10:01:49.246Z,41.14
2018-07-30T10:02:49.180Z,41.41
2018-07-30T10:03:49.173Z,41.62
2018-07-30T10:04:49.171Z,41.82
2018-07-30T10:05:49.154Z,41.98
2018-07-30T10:06:49.212Z,42.16
2018-07-30T10:07:49.140Z,42.33
2018-07-30T10:08:49.135Z,42.46
2018-07-30T10:09:49.990Z,41.91
2018-07-30T10:10:49.121Z,41.99
2018-07-30T10:11:49.277Z,42.04
2018-07-30T10:12:49.103Z,42.27
2018-07-30T10:13:49.100Z,42.42
2018-07-30T10:14:49.097Z,42.73
2018-07-30T10:15:49.086Z,42.84
2018-07-30T10:16:49.152Z,42.95
2018-07-30T10:17:49.087Z,43.17
2018-07-30T10:18:49.066Z,43.46
2018-07-30T10:19:49.068Z,43.69
2018-07-30T10:20:49.054Z,44.03
2018-07-30T10:21:49.113Z,44.25
2018-07-30T10:22:49.043Z,44.51
2018-07-30T10:23:49.080Z,44.85
2018-07-30T10:24:49.031Z,45.00
2018-07-30T10:25:49.026Z,45.10
2018-07-30T10:26:49.087Z,44.86
2018-07-30T10:27:49.013Z,44.89
2018-07-30T10:28:49.024Z,43.98
2018-07-30T10:29:49.000Z,44.59
2018-07-30T10:30:50.054Z,44.34
2018-07-30T10:31:49.057Z,43.93
2018-07-30T10:32:48.977Z,42.95
2018-07-30T10:33:48.974Z,42.30
2018-07-30T10:34:48.976Z,41.41
2018-07-30T10:35:48.966Z,40.79
2018-07-30T10:36:49.011Z,40.22
2018-07-30T10:37:48.941Z,40.99
2018-07-30T10:38:48.938Z,41.98
2018-07-30T10:39:48.965Z,42.61
2018-07-30T10:40:48.945Z,43.23
2018-07-30T10:41:49.000Z,43.47
2018-07-30T10:42:48.916Z,44.13
2018-07-30T10:43:48.957Z,44.36
2018-07-30T10:44:48.898Z,44.67
2018-07-30T10:45:48.892Z,45.13
2018-07-30T10:46:48.950Z,45.29
2018-07-30T10:47:48.881Z,45.45
2018-07-30T10:48:48.875Z,44.97
2018-07-30T10:49:48.863Z,43.69
2018-07-30T10:50:48.889Z,43.15
2018-07-30T10:51:49.112Z,43.86
2018-07-30T10:52:48.849Z,44.34
2018-07-30T10:53:48.897Z,42.98
2018-07-30T10:54:56.981Z,42.42
2018-07-30T10:55:48.872Z,42.37
2018-07-30T10:56:48.887Z,42.98
2018-07-30T10:57:48.815Z,43.75
2018-07-30T10:58:48.830Z,43.84
2018-07-30T10:59:48.800Z,42.74
2018-07-30T11:00:48.792Z,41.86
2018-07-30T11:01:48.866Z,41.26
2018-07-30T11:02:48.776Z,40.67
2018-07-30T11:03:48.781Z,40.29
2018-07-30T11:04:48.766Z,39.89
2018-07-30T11:05:48.761Z,39.52
2018-07-30T11:06:48.818Z,39.40
2018-07-30T11:07:48.764Z,39.91
2018-07-30T11:08:48.736Z,39.04
2018-07-30T11:09:48.817Z,40.06
2018-07-30T11:10:48.722Z,40.69
2018-07-30T11:11:48.716Z,41.17
2018-07-30T11:12:48.767Z,41.80
2018-07-30T11:13:48.690Z,41.90
2018-07-30T11:14:48.697Z,40.74
2018-07-30T11:15:49.501Z,39.63
2018-07-30T11:16:48.668Z,39.11
2018-07-30T11:17:48.730Z,38.57
2018-07-30T11:18:48.656Z,38.18
2018-07-30T11:19:48.643Z,37.94
2018-07-30T11:20:57.538Z,37.34
2018-07-30T11:21:56.807Z,37.18
2018-07-30T11:22:56.753Z,37.20
2018-07-30T11:23:56.753Z,37.25
2018-07-30T11:24:56.784Z,38.15
2018-07-30T11:25:48.672Z,38.15
2018-07-30T11:26:48.762Z,38.23
2018-07-30T11:27:48.644Z,38.12
2018-07-30T11:28:57.001Z,38.16
2018-07-30T11:29:56.692Z,38.04
2018-07-30T11:30:56.712Z,37.72
2018-07-30T11:31:57.120Z,37.46
2018-07-30T11:32:52.854Z,37.31
2018-07-30T11:33:56.054Z,37.12
2018-07-30T11:34:48.512Z,37.07
2018-07-30T11:35:48.501Z,37.91
2018-07-30T11:36:48.892Z,37.91
2018-07-30T11:37:48.552Z,37.55
2018-07-30T11:38:48.779Z,37.32
2018-07-30T11:39:48.488Z,37.64
2018-07-30T11:40:48.670Z,38.57
2018-07-30T11:41:48.639Z,38.81
2018-07-30T11:42:48.921Z,39.10
2018-07-30T11:43:48.627Z,40.07
2018-07-30T11:44:48.425Z,40.96
2018-07-30T11:45:48.485Z,41.51
2018-07-30T11:46:48.414Z,40.57
2018-07-30T11:47:48.461Z,39.96
2018-07-30T11:48:48.484Z,39.50
2018-07-30T11:49:48.407Z,39.09
2018-07-30T11:50:48.371Z,38.50
2018-07-30T11:51:48.364Z,38.15
2018-07-30T11:52:48.427Z,39.14
2018-07-30T11:53:48.344Z,38.68
2018-07-30T11:54:50.875Z,38.50
2018-07-30T11:55:48.335Z,38.13
2018-07-30T11:56:48.316Z,38.11
2018-07-30T11:57:49.375Z,38.13
2018-07-30T11:58:48.302Z,39.28
2018-07-30T11:59:48.294Z,39.45
2018-07-30T12:00:48.323Z,38.90
2018-07-30T12:01:48.336Z,38.63
2018-07-30T12:02:48.334Z,39.73
2018-07-30T12:03:48.260Z,40.04
2018-07-30T12:04:48.257Z,40.70
2018-07-30T12:05:48.250Z,40.38
2018-07-30T12:06:48.232Z,40.03
2018-07-30T12:07:48.326Z,40.18
2018-07-30T12:08:48.253Z,41.07
2018-07-30T12:09:48.210Z,41.60
2018-07-30T12:10:48.203Z,41.86
2018-07-30T12:11:48.201Z,42.45
2018-07-30T12:12:48.273Z,42.87
2018-07-30T12:13:48.178Z,43.40
2018-07-30T12:14:48.170Z,43.72
2018-07-30T12:15:48.869Z,42.91
2018-07-30T12:16:48.158Z,42.16
2018-07-30T12:17:48.219Z,42.58
2018-07-30T12:18:48.142Z,43.25
2018-07-30T12:19:48.131Z,43.17
2018-07-30T12:20:48.140Z,42.54
2018-07-30T12:21:48.197Z,41.76
2018-07-30T12:22:48.174Z,41.39
2018-07-30T12:23:48.123Z,40.98
2018-07-30T12:24:48.092Z,41.01
2018-07-30T12:25:48.096Z,40.70
2018-07-30T12:26:48.080Z,40.64
2018-07-30T12:27:48.073Z,40.61
2018-07-30T12:28:48.127Z,40.61
2018-07-30T12:29:48.052Z,41.08
2018-07-30T12:30:48.080Z,41.41
2018-07-30T12:31:48.035Z,41.37
2018-07-30T12:32:48.029Z,41.62
2018-07-30T12:33:48.090Z,41.91
2018-07-30T12:34:48.013Z,42.25
2018-07-30T12:35:48.006Z,42.17
2018-07-30T12:36:48.867Z,41.64
2018-07-30T12:37:47.988Z,41.42
2018-07-30T12:38:48.045Z,41.33
2018-07-30T12:39:47.976Z,40.79
2018-07-30T12:40:47.962Z,40.54
2018-07-30T12:41:47.963Z,40.26
2018-07-30T12:42:47.945Z,40.69
2018-07-30T12:43:48.008Z,41.33
2018-07-30T12:44:47.966Z,41.33
2018-07-30T12:45:47.923Z,41.47
2018-07-30T12:46:47.915Z,42.25
2018-07-30T12:47:47.906Z,42.91
2018-07-30T12:48:47.956Z,42.86
2018-07-30T12:49:47.887Z,42.65
2018-07-30T12:50:47.906Z,42.77
2018-07-30T12:51:47.872Z,42.77
2018-07-30T12:52:47.866Z,42.28